createdAt,value
2019-05-29T00:01:16.179Z,4.60
2019-05-29T00:03:45.555Z,4.70
2019-05-29T00:10:06.673Z,5.07
2019-05-29T00:12:40.396Z,4.73
2019-05-29T00:15:14.603Z,5.20
2019-05-29T00:17:48.595Z,4.90
2019-05-29T00:20:22.764Z,5.13
2019-05-29T00:26:42.385Z,4.30
2019-05-29T00:29:16.044Z,4.17
2019-05-29T00:31:49.628Z,4.57
2019-05-29T00:34:24.271Z,4.10
2019-05-29T00:36:58.039Z,4.50
2019-05-29T00:39:32.015Z,4.47
2019-05-29T00:42:06.875Z,4.17
2019-05-29T00:44:40.593Z,4.30
2019-05-29T00:47:14.179Z,3.57
2019-05-29T00:49:48.145Z,3.87
2019-05-29T00:52:23.167Z,3.83
2019-05-29T00:54:56.767Z,4.23
2019-05-29T00:57:30.444Z,4.00
2019-05-29T01:00:05.979Z,4.00
2019-05-29T01:02:39.632Z,4.20
2019-05-29T01:05:13.941Z,3.40
2019-05-29T01:07:47.667Z,3.03
2019-05-29T01:10:21.611Z,3.40
2019-05-29T01:12:55.401Z,3.10
2019-05-29T01:15:29.466Z,2.50
2019-05-29T01:18:03.177Z,3.00
2019-05-29T01:20:36.898Z,2.93
2019-05-29T01:23:10.629Z,3.00
2019-05-29T01:25:45.198Z,3.00
2019-05-29T01:28:19.031Z,2.83
2019-05-29T01:30:52.679Z,2.90
2019-05-29T01:33:26.420Z,3.00
2019-05-29T01:36:00.000Z,2.20
2019-05-29T01:38:33.952Z,2.60
2019-05-29T01:41:07.527Z,2.73
2019-05-29T01:43:41.125Z,2.00
2019-05-29T01:46:15.202Z,2.60
2019-05-29T01:48:48.949Z,2.50
2019-05-29T01:54:43.188Z,2.10
2019-05-29T01:57:17.752Z,2.07
2019-05-29T01:59:51.480Z,2.60
2019-05-29T02:02:25.748Z,2.40
2019-05-29T02:04:59.639Z,2.00
2019-05-29T02:11:19.420Z,2.27
2019-05-29T02:13:54.040Z,2.30
2019-05-29T02:16:27.654Z,2.43
2019-05-29T02:19:01.247Z,2.30
2019-05-29T02:21:34.864Z,2.47
2019-05-29T02:24:08.455Z,2.10
2019-05-29T02:26:42.144Z,2.10
2019-05-29T02:29:16.422Z,2.20
2019-05-29T02:31:50.161Z,2.13
2019-05-29T02:34:25.495Z,2.23
2019-05-29T02:36:59.162Z,1.80
2019-05-29T02:39:32.901Z,2.10
2019-05-29T02:42:06.853Z,2.07
2019-05-29T02:44:40.547Z,1.90
2019-05-29T02:47:14.139Z,2.23
2019-05-29T02:49:47.821Z,1.63
2019-05-29T02:52:21.944Z,2.30
2019-05-29T02:54:55.986Z,2.10
2019-05-29T02:57:30.967Z,1.70
2019-05-29T03:00:06.830Z,1.60
2019-05-29T03:02:40.454Z,1.90
2019-05-29T03:05:14.399Z,1.80
2019-05-29T03:07:48.099Z,1.97
2019-05-29T03:10:22.561Z,2.20
2019-05-29T03:12:56.490Z,1.73
2019-05-29T03:15:31.605Z,1.80
2019-05-29T03:18:05.367Z,1.80
2019-05-29T03:20:39.373Z,2.00
2019-05-29T03:23:13.075Z,2.07
2019-05-29T03:25:46.983Z,1.70
2019-05-29T03:28:21.115Z,1.60
2019-05-29T03:30:55.017Z,1.90
2019-05-29T03:33:35.962Z,2.23
2019-05-29T03:36:04.057Z,1.23
2019-05-29T03:38:38.612Z,1.57
2019-05-29T03:41:12.443Z,1.93
2019-05-29T03:43:46.083Z,1.70
2019-05-29T03:46:31.280Z,1.47
2019-05-29T03:48:54.930Z,1.60
2019-05-29T03:51:29.686Z,1.50
2019-05-29T03:54:03.939Z,1.80
2019-05-29T03:56:38.929Z,1.37
2019-05-29T03:59:12.800Z,1.70
2019-05-29T04:01:46.733Z,1.53
2019-05-29T04:04:21.421Z,2.03
2019-05-29T04:10:41.591Z,1.67
2019-05-29T04:13:15.303Z,2.03
2019-05-29T04:15:49.591Z,1.67
2019-05-29T04:18:23.924Z,1.87
2019-05-29T04:20:58.691Z,2.17
2019-05-29T04:27:21.835Z,1.20
2019-05-29T04:30:01.283Z,1.63
2019-05-29T04:32:36.585Z,1.70
2019-05-29T04:35:10.441Z,1.90
2019-05-29T04:37:44.063Z,2.43
2019-05-29T04:40:19.430Z,1.60
2019-05-29T04:42:53.071Z,1.80
2019-05-29T04:45:26.738Z,1.60
2019-05-29T04:48:00.401Z,1.60
2019-05-29T04:50:35.719Z,1.97
2019-05-29T04:53:09.468Z,1.60
2019-05-29T04:55:43.145Z,1.97
2019-05-29T04:58:16.793Z,1.80
2019-05-29T05:00:58.946Z,1.70
2019-05-29T05:03:25.664Z,1.73
2019-05-29T05:05:59.283Z,1.33
2019-05-29T05:08:35.394Z,1.97
2019-05-29T05:11:12.398Z,1.90
2019-05-29T05:13:47.755Z,1.20
2019-05-29T05:16:21.342Z,1.47
2019-05-29T05:18:54.981Z,1.30
2019-05-29T05:21:29.765Z,1.43
2019-05-29T05:24:03.603Z,1.40
2019-05-29T05:26:38.310Z,1.23
2019-05-29T05:29:12.125Z,1.23
2019-05-29T05:31:45.807Z,1.47
2019-05-29T05:34:19.500Z,0.90
2019-05-29T05:36:53.160Z,1.40
2019-05-29T05:39:26.773Z,1.33
2019-05-29T05:42:00.413Z,1.00
2019-05-29T05:44:34.945Z,1.40
2019-05-29T05:47:08.651Z,1.20
2019-05-29T05:49:42.321Z,1.10
2019-05-29T05:55:53.087Z,1.17
2019-05-29T05:58:26.779Z,1.10
2019-05-29T06:01:00.452Z,0.80
2019-05-29T06:03:34.188Z,0.70
2019-05-29T06:06:07.771Z,1.00
2019-05-29T06:12:18.721Z,0.93
2019-05-29T06:14:52.454Z,0.87
2019-05-29T06:17:26.131Z,0.70
2019-05-29T06:19:59.716Z,1.10
2019-05-29T06:22:34.660Z,0.80
2019-05-29T06:25:09.257Z,1.30
2019-05-29T06:27:43.409Z,0.80
2019-05-29T06:30:17.759Z,0.80
2019-05-29T06:32:51.480Z,0.83
2019-05-29T06:35:25.708Z,0.90
2019-05-29T06:37:59.380Z,0.83
2019-05-29T06:40:42.430Z,0.80
2019-05-29T06:43:21.302Z,0.70
2019-05-29T06:45:55.789Z,0.70
2019-05-29T06:48:42.606Z,0.50
2019-05-29T06:51:06.454Z,0.80
2019-05-29T06:53:40.056Z,0.80
2019-05-29T06:56:13.937Z,0.60
2019-05-29T06:58:48.484Z,0.60
2019-05-29T07:01:22.763Z,0.70
2019-05-29T07:04:11.416Z,0.72
2019-05-29T07:06:31.919Z,0.70
2019-05-29T07:09:06.487Z,0.85
2019-05-29T07:11:41.258Z,0.50
2019-05-29T07:14:15.146Z,0.80
2019-05-29T07:16:55.576Z,1.00
2019-05-29T07:19:34.195Z,0.77
2019-05-29T07:21:59.204Z,0.87
2019-05-29T07:24:32.821Z,1.00
2019-05-29T07:27:06.519Z,0.80
2019-05-29T07:29:41.129Z,0.70
2019-05-29T07:32:14.903Z,0.80
2019-05-29T07:35:02.325Z,1.10
2019-05-29T07:37:24.687Z,1.17
2019-05-29T07:39:58.296Z,0.80
2019-05-29T07:42:31.944Z,0.80
2019-05-29T07:45:07.318Z,0.67
2019-05-29T07:47:42.257Z,0.90
2019-05-29T07:50:16.713Z,0.70
2019-05-29T07:56:36.234Z,0.73
2019-05-29T07:59:09.933Z,0.70
2019-05-29T08:01:43.539Z,1.20
2019-05-29T08:04:17.126Z,1.00
2019-05-29T08:06:54.371Z,1.10
2019-05-29T08:13:12.576Z,0.80
2019-05-29T08:15:57.530Z,0.87
2019-05-29T08:18:22.142Z,1.00
2019-05-29T08:20:55.940Z,1.00
2019-05-29T08:23:29.521Z,0.80
2019-05-29T08:26:03.219Z,0.73
2019-05-29T08:28:37.102Z,0.97
2019-05-29T08:31:10.757Z,0.90
2019-05-29T08:33:44.859Z,0.80
2019-05-29T08:36:18.697Z,1.00
2019-05-29T08:38:52.383Z,0.83
2019-05-29T08:41:26.110Z,1.33
2019-05-29T08:43:59.726Z,0.67
2019-05-29T08:46:33.623Z,1.03
2019-05-29T08:49:07.421Z,0.83
2019-05-29T08:51:41.813Z,0.90
2019-05-29T08:54:23.976Z,0.87
2019-05-29T08:56:50.891Z,1.10
2019-05-29T08:59:25.428Z,0.80
2019-05-29T09:01:59.118Z,1.00
2019-05-29T09:04:33.659Z,1.00
2019-05-29T09:07:08.896Z,0.80
2019-05-29T09:09:42.944Z,0.80
2019-05-29T09:12:16.712Z,1.23
2019-05-29T09:14:50.394Z,1.10
2019-05-29T09:17:24.291Z,1.00
2019-05-29T09:19:57.992Z,0.90
2019-05-29T09:22:31.632Z,1.17
2019-05-29T09:25:06.980Z,1.10
2019-05-29T09:27:41.324Z,0.60
2019-05-29T09:30:16.708Z,1.00
2019-05-29T09:32:53.003Z,0.87
2019-05-29T09:35:27.112Z,1.03
2019-05-29T09:41:37.937Z,0.90
2019-05-29T09:44:28.127Z,1.20
2019-05-29T09:46:47.093Z,0.97
2019-05-29T09:49:21.822Z,0.90
2019-05-29T09:51:56.185Z,0.90
2019-05-29T09:58:15.958Z,1.13
2019-05-29T10:01:09.881Z,0.70
2019-05-29T10:03:26.511Z,0.80
2019-05-29T10:06:01.456Z,0.80
2019-05-29T10:08:35.366Z,0.73
2019-05-29T10:11:10.882Z,1.00
2019-05-29T10:13:44.439Z,1.10
2019-05-29T10:16:18.423Z,1.00
2019-05-29T10:18:52.110Z,0.70
2019-05-29T10:21:38.994Z,1.03
2019-05-29T10:24:02.140Z,1.00
2019-05-29T10:26:36.284Z,0.77
2019-05-29T10:29:11.053Z,1.00
2019-05-29T10:31:46.841Z,1.17
2019-05-29T10:34:20.337Z,0.90
2019-05-29T10:36:54.810Z,0.80
2019-05-29T10:39:28.828Z,0.87
2019-05-29T10:42:02.509Z,1.10
2019-05-29T10:44:36.159Z,0.90
2019-05-29T10:47:09.829Z,1.10
2019-05-29T10:49:43.566Z,0.97
2019-05-29T10:52:17.596Z,0.93
2019-05-29T10:54:52.412Z,0.90
2019-05-29T10:57:26.107Z,0.60
2019-05-29T10:59:59.872Z,0.90
2019-05-29T11:02:33.473Z,1.10
2019-05-29T11:05:07.934Z,1.10
2019-05-29T11:07:41.568Z,0.80
2019-05-29T11:10:15.841Z,0.73
2019-05-29T11:12:50.658Z,0.80
2019-05-29T11:15:24.701Z,0.70
2019-05-29T11:17:58.639Z,1.07
2019-05-29T11:20:32.410Z,0.80
2019-05-29T11:23:06.148Z,0.73
2019-05-29T11:25:43.186Z,1.10
2019-05-29T11:28:16.810Z,0.60
2019-05-29T11:30:51.983Z,0.90
2019-05-29T11:33:25.715Z,0.60
2019-05-29T11:36:10.006Z,0.70
2019-05-29T11:42:26.325Z,0.80
2019-05-29T11:44:47.638Z,0.77
2019-05-29T11:47:22.296Z,0.73
2019-05-29T11:50:00.390Z,0.90
2019-05-29T11:52:42.570Z,0.90
2019-05-29T11:58:45.951Z,0.83
2019-05-29T12:01:20.506Z,0.70
2019-05-29T12:04:24.155Z,0.70
2019-05-29T12:06:29.933Z,1.13
2019-05-29T12:09:05.501Z,0.70
2019-05-29T12:11:39.419Z,0.50
2019-05-29T12:14:13.100Z,0.80
2019-05-29T12:16:48.181Z,0.70
2019-05-29T12:19:21.777Z,0.77
2019-05-29T12:21:56.471Z,0.57
2019-05-29T12:24:31.423Z,1.17
2019-05-29T12:27:05.555Z,1.00
2019-05-29T12:29:39.176Z,0.60
2019-05-29T12:32:13.167Z,0.60
2019-05-29T12:34:53.642Z,0.70
2019-05-29T12:37:22.312Z,0.70
2019-05-29T12:39:57.360Z,0.70
2019-05-29T12:42:31.349Z,0.90
2019-05-29T12:45:10.115Z,1.10
2019-05-29T12:47:43.754Z,0.83
2019-05-29T12:50:18.280Z,0.70
2019-05-29T12:52:51.895Z,1.20
2019-05-29T12:55:25.757Z,1.67
2019-05-29T12:57:59.976Z,0.60
2019-05-29T13:00:33.794Z,0.70
2019-05-29T13:03:07.594Z,0.70
2019-05-29T13:05:41.618Z,0.80
2019-05-29T13:08:15.310Z,0.80
2019-05-29T13:10:48.914Z,0.63
2019-05-29T13:13:23.613Z,1.00
2019-05-29T13:15:58.665Z,0.70
2019-05-29T13:18:32.528Z,0.80
2019-05-29T13:21:06.275Z,0.80
2019-05-29T13:27:25.702Z,0.60
2019-05-29T13:30:01.736Z,0.97
2019-05-29T13:32:34.623Z,0.57
2019-05-29T13:35:08.764Z,0.70
2019-05-29T13:37:42.364Z,0.67
2019-05-29T13:43:53.690Z,1.03
2019-05-29T13:46:27.756Z,0.80
2019-05-29T13:49:02.600Z,0.70
2019-05-29T13:51:36.560Z,0.60
2019-05-29T13:54:15.472Z,0.90
2019-05-29T13:56:45.825Z,0.70
2019-05-29T13:59:19.659Z,1.17
2019-05-29T14:01:53.326Z,0.97
2019-05-29T14:04:27.899Z,0.73
2019-05-29T14:07:03.253Z,0.97
2019-05-29T14:09:36.916Z,0.83
2019-05-29T14:12:10.546Z,0.70
2019-05-29T14:14:44.137Z,0.67
2019-05-29T14:17:17.902Z,0.90
2019-05-29T14:19:52.174Z,0.80
2019-05-29T14:22:25.948Z,0.80
2019-05-29T14:24:59.545Z,0.70
2019-05-29T14:27:33.181Z,0.77
2019-05-29T14:30:10.487Z,0.80
2019-05-29T14:32:44.582Z,0.70
2019-05-29T14:35:18.307Z,0.60
2019-05-29T14:37:51.951Z,0.90
2019-05-29T14:40:26.111Z,1.00
2019-05-29T14:42:59.833Z,0.83
2019-05-29T14:45:33.543Z,0.80
2019-05-29T14:48:08.161Z,0.70
2019-05-29T14:50:41.946Z,0.83
2019-05-29T14:53:15.624Z,1.17
2019-05-29T14:55:49.295Z,1.30
2019-05-29T14:58:23.019Z,1.33
2019-05-29T15:00:56.738Z,1.07
2019-05-29T15:03:30.367Z,1.23
2019-05-29T15:06:04.023Z,0.77
2019-05-29T15:08:37.685Z,0.83
2019-05-29T15:11:12.068Z,1.53
2019-05-29T15:13:45.897Z,0.70
2019-05-29T15:16:19.591Z,1.07
2019-05-29T15:18:53.229Z,0.60
2019-05-29T15:21:26.889Z,0.90
2019-05-29T15:27:37.811Z,0.67
2019-05-29T15:30:16.088Z,0.93
2019-05-29T15:32:47.584Z,0.80
2019-05-29T15:35:21.420Z,0.53
2019-05-29T15:37:55.107Z,0.87
2019-05-29T15:44:15.226Z,0.70
2019-05-29T15:46:48.814Z,1.20
2019-05-29T15:49:22.543Z,1.10
2019-05-29T15:51:56.253Z,0.87
2019-05-29T15:54:29.935Z,1.20
2019-05-29T15:57:03.846Z,1.03
2019-05-29T15:59:37.941Z,1.53
2019-05-29T16:02:11.551Z,1.37
2019-05-29T16:04:45.173Z,1.17
2019-05-29T16:07:19.173Z,1.83
2019-05-29T16:09:52.893Z,2.10
2019-05-29T16:12:30.763Z,2.40
2019-05-29T16:15:01.916Z,1.77
2019-05-29T16:17:35.647Z,0.97
2019-05-29T16:20:10.725Z,1.50
2019-05-29T16:22:44.489Z,1.00
2019-05-29T16:25:19.127Z,1.53
2019-05-29T16:27:52.845Z,1.07
2019-05-29T16:30:26.968Z,1.30
2019-05-29T16:33:00.581Z,0.70
2019-05-29T16:35:37.267Z,0.80
2019-05-29T16:38:09.546Z,0.97
2019-05-29T16:40:43.232Z,1.10
2019-05-29T16:43:18.057Z,1.10
2019-05-29T16:45:51.911Z,1.40
2019-05-29T16:48:25.628Z,0.93
2019-05-29T16:51:00.334Z,1.23
2019-05-29T16:53:33.899Z,1.20
2019-05-29T16:56:07.619Z,1.13
2019-05-29T16:58:41.243Z,1.30
2019-05-29T17:01:15.257Z,1.47
2019-05-29T17:03:49.042Z,1.10
2019-05-29T17:06:24.174Z,0.87
2019-05-29T17:08:58.596Z,1.67
2019-05-29T17:11:34.520Z,1.70
2019-05-29T17:14:08.354Z,1.23
2019-05-29T17:16:41.990Z,1.00
2019-05-29T17:19:16.595Z,1.00
2019-05-29T17:21:50.308Z,1.07
2019-05-29T17:28:00.894Z,1.93
2019-05-29T17:30:34.484Z,1.43
2019-05-29T17:33:08.257Z,1.60
2019-05-29T17:35:41.849Z,2.57
2019-05-29T17:38:15.488Z,3.03
2019-05-29T17:44:26.111Z,1.57
2019-05-29T17:46:59.779Z,3.53
2019-05-29T17:49:34.750Z,2.70
2019-05-29T17:52:08.536Z,4.20
2019-05-29T17:54:42.166Z,3.07
2019-05-29T17:57:16.627Z,1.97
2019-05-29T17:59:51.275Z,2.23
2019-05-29T18:02:26.115Z,2.13
2019-05-29T18:05:00.064Z,2.37
2019-05-29T18:07:33.800Z,2.47
2019-05-29T18:10:08.519Z,2.30
2019-05-29T18:12:42.142Z,2.33
2019-05-29T18:15:19.532Z,4.00
2019-05-29T18:17:53.380Z,2.65
2019-05-29T18:20:27.882Z,2.10
2019-05-29T18:23:01.696Z,1.30
2019-05-29T18:25:35.314Z,1.40
2019-05-29T18:28:08.890Z,1.37
2019-05-29T18:30:42.593Z,1.33
2019-05-29T18:33:16.207Z,1.50
2019-05-29T18:35:49.868Z,1.50
2019-05-29T18:38:24.443Z,1.73
2019-05-29T18:40:58.244Z,1.70
2019-05-29T18:43:32.866Z,2.50
2019-05-29T18:46:06.732Z,1.57
2019-05-29T18:48:40.438Z,1.70
2019-05-29T18:51:14.218Z,1.70
2019-05-29T18:53:47.866Z,1.67
2019-05-29T18:56:22.200Z,1.40
2019-05-29T18:58:55.826Z,1.70
2019-05-29T19:01:30.018Z,1.77
2019-05-29T19:04:03.955Z,1.67
2019-05-29T19:06:37.610Z,1.80
2019-05-29T19:09:11.367Z,1.60
2019-05-29T19:11:45.318Z,2.30
2019-05-29T19:14:19.068Z,1.97
2019-05-29T19:16:52.700Z,1.93
2019-05-29T19:19:26.390Z,2.70
2019-05-29T19:22:00.078Z,5.10
2019-05-29T19:24:33.672Z,4.60
2019-05-29T19:27:07.312Z,5.87
2019-05-29T19:29:40.916Z,4.10
2019-05-29T19:32:14.540Z,4.33
2019-05-29T19:34:48.540Z,4.47
2019-05-29T19:37:23.728Z,3.90
2019-05-29T19:43:43.660Z,3.67
2019-05-29T19:46:17.310Z,3.47
2019-05-29T19:48:50.945Z,3.80
2019-05-29T19:51:25.219Z,4.43
2019-05-29T19:54:01.887Z,3.57
2019-05-29T20:00:21.988Z,4.37
2019-05-29T20:02:55.638Z,4.43
2019-05-29T20:05:29.629Z,3.80
2019-05-29T20:08:04.584Z,3.83
2019-05-29T20:10:38.254Z,4.07
2019-05-29T20:13:12.202Z,3.60
2019-05-29T20:15:45.906Z,3.53
2019-05-29T20:18:19.786Z,3.83
2019-05-29T20:20:53.420Z,4.03
2019-05-29T20:23:28.494Z,3.77
2019-05-29T20:26:02.331Z,4.20
2019-05-29T20:28:36.328Z,4.57
2019-05-29T20:31:12.112Z,4.50
2019-05-29T20:33:45.430Z,4.33
2019-05-29T20:36:19.206Z,3.67
2019-05-29T20:38:52.798Z,3.80
2019-05-29T20:41:26.498Z,3.87
2019-05-29T20:44:00.033Z,4.17
2019-05-29T20:46:34.924Z,4.57
2019-05-29T20:49:08.751Z,4.57
2019-05-29T20:51:42.515Z,5.17
2019-05-29T20:54:16.093Z,5.30
2019-05-29T20:56:49.712Z,5.97
2019-05-29T20:59:23.363Z,6.20
2019-05-29T21:01:56.971Z,6.47
2019-05-29T21:04:30.561Z,6.77
2019-05-29T21:07:04.296Z,6.50
2019-05-29T21:09:39.104Z,6.00
2019-05-29T21:12:12.925Z,6.47
2019-05-29T21:14:46.612Z,5.50
2019-05-29T21:17:20.620Z,5.67
2019-05-29T21:19:54.203Z,5.83
2019-05-29T21:22:27.898Z,5.67
2019-05-29T21:25:07.759Z,5.83
2019-05-29T21:27:37.087Z,6.43
2019-05-29T21:30:12.250Z,5.67
2019-05-29T21:32:46.078Z,5.73
2019-05-29T21:35:19.874Z,5.70
2019-05-29T21:37:53.794Z,5.97
2019-05-29T21:44:04.699Z,4.77
2019-05-29T21:46:38.853Z,5.07
2019-05-29T21:49:12.648Z,4.87
2019-05-29T21:51:46.352Z,4.43
2019-05-29T21:54:20.046Z,4.80
2019-05-29T22:00:49.291Z,4.50
2019-05-29T22:03:24.681Z,4.47
2019-05-29T22:05:58.282Z,4.40
2019-05-29T22:08:32.007Z,4.40
2019-05-29T22:11:05.620Z,4.23
2019-05-29T22:13:39.249Z,4.53
2019-05-29T22:16:12.891Z,3.97
2019-05-29T22:18:46.590Z,4.13
2019-05-29T22:21:20.236Z,4.00
2019-05-29T22:23:55.054Z,4.20
2019-05-29T22:26:28.948Z,4.37
2019-05-29T22:29:17.065Z,4.47
2019-05-29T22:31:37.892Z,4.37
2019-05-29T22:34:11.532Z,3.90
2019-05-29T22:36:45.206Z,4.10
2019-05-29T22:39:18.842Z,3.90
2019-05-29T22:41:53.446Z,3.87
2019-05-29T22:44:27.548Z,4.30
2019-05-29T22:47:02.012Z,4.60
2019-05-29T22:49:35.826Z,3.77
2019-05-29T22:52:09.409Z,3.80
2019-05-29T22:54:43.282Z,3.80
2019-05-29T22:57:16.854Z,3.97
2019-05-29T22:59:51.745Z,4.07
2019-05-29T23:02:25.522Z,4.20
2019-05-29T23:05:00.354Z,4.83
2019-05-29T23:07:34.211Z,4.97
2019-05-29T23:10:08.967Z,5.30
2019-05-29T23:12:42.632Z,4.70
2019-05-29T23:15:16.395Z,4.27
2019-05-29T23:17:50.030Z,4.77
2019-05-29T23:20:23.647Z,4.33
2019-05-29T23:22:57.226Z,4.87
2019-05-29T23:25:30.952Z,4.60
2019-05-29T23:28:04.704Z,4.43
2019-05-29T23:30:38.312Z,4.73
2019-05-29T23:33:11.963Z,4.47
2019-05-29T23:35:45.585Z,4.90
2019-05-29T23:38:19.167Z,4.83
2019-05-29T23:44:30.212Z,3.97
2019-05-29T23:47:05.018Z,3.87
2019-05-29T23:49:38.599Z,3.77
2019-05-29T23:52:12.270Z,3.80
2019-05-29T23:54:45.924Z,3.70
